Time;durP1;ratioP1;P1;durP2;ratioP2;P2;SDS_P1;SDS_P2;PMS_P1;PMS_P2;Temp;Humidity;BMP_temperature;BMP_pressure;BME280_temperature;BME280_humidity;BME280_pressure;Samples;Min_cycle;Max_cycle;Signal;HPM_P1;HPM_P2
2024/02/28 00:01:11;;;;;;;11.95;10.65;;;;;;;;;;5038934;28;20183;-94
2024/02/28 00:03:40;;;;;;;12.98;10.70;;;;;;;;;;5038199;28;20210;-93
2024/02/28 00:06:08;;;;;;;13.57;10.95;;;;;;;;;;5038187;28;20203;-93
2024/02/28 00:08:37;;;;;;;12.35;10.52;;;;;;;;;;5038206;28;20182;-95
2024/02/28 00:11:05;;;;;;;14.73;12.13;;;;;;;;;;5038228;28;20187;-94
2024/02/28 00:13:33;;;;;;;12.25;10.35;;;;;;;;;;5037920;28;20187;-92
2024/02/28 00:16:00;;;;;;;13.07;10.35;;;;;;;;;;5037921;28;20199;-94
2024/02/28 00:18:28;;;;;;;12.63;10.35;;;;;;;;;;5038045;28;20233;-93
2024/02/28 00:20:58;;;;;;;14.25;11.23;;;;;;;;;;5037938;28;20183;-94
2024/02/28 00:23:26;;;;;;;14.98;12.52;;;;;;;;;;5037896;28;20191;-93
2024/02/28 00:25:54;;;;;;;13.27;11.55;;;;;;;;;;5037915;28;20205;-93
2024/02/28 00:28:21;;;;;;;13.02;10.65;;;;;;;;;;5037538;28;20187;-93
2024/02/28 00:30:49;;;;;;;12.80;10.57;;;;;;;;;;5037635;28;20198;-92
2024/02/28 00:33:17;;;;;;;12.98;11.57;;;;;;;;;;5037704;28;20230;-94
2024/02/28 00:35:45;;;;;;;13.45;10.65;;;;;;;;;;5037833;28;20179;-94
2024/02/28 00:38:14;;;;;;;12.07;10.05;;;;;;;;;;5037461;28;20213;-95
2024/02/28 00:40:42;;;;;;;14.38;10.38;;;;;;;;;;5037823;28;20179;-94
2024/02/28 00:43:09;;;;;;;14.43;11.05;;;;;;;;;;5037557;28;20186;-94
2024/02/28 00:45:37;;;;;;;15.90;11.02;;;;;;;;;;5037700;28;20194;-95
2024/02/28 00:48:06;;;;;;;14.27;11.60;;;;;;;;;;5037625;28;20195;-93
2024/02/28 00:50:33;;;;;;;12.27;10.90;;;;;;;;;;5037637;28;20205;-94
2024/02/28 00:53:01;;;;;;;17.23;14.40;;;;;;;;;;5037511;28;20190;-94
2024/02/28 00:55:30;;;;;;;22.92;17.33;;;;;;;;;;5037649;28;20190;-95
2024/02/28 00:57:58;;;;;;;31.17;22.10;;;;;;;;;;5037402;28;20223;-94
2024/02/28 01:00:25;;;;;;;28.52;19.92;;;;;;;;;;5037491;28;20187;-93
2024/02/28 01:02:53;;;;;;;22.33;14.70;;;;;;;;;;5037481;28;20190;-95
2024/02/28 01:05:21;;;;;;;20.45;15.02;;;;;;;;;;5037591;28;20179;-93
2024/02/28 01:07:48;;;;;;;16.05;13.18;;;;;;;;;;5037363;28;20220;-95
2024/02/28 01:10:16;;;;;;;15.93;12.70;;;;;;;;;;5037429;28;20188;-94
2024/02/28 01:12:46;;;;;;;19.00;12.77;;;;;;;;;;5037382;28;20194;-95
2024/02/28 01:15:13;;;;;;;15.05;11.73;;;;;;;;;;5037372;28;20209;-94
2024/02/28 01:17:41;;;;;;;14.02;12.00;;;;;;;;;;5037298;28;20234;-94
2024/02/28 01:20:10;;;;;;;13.38;11.90;;;;;;;;;;5037360;28;20195;-94
2024/02/28 01:22:38;;;;;;;16.27;12.55;;;;;;;;;;5037208;28;20184;-93
2024/02/28 01:25:06;;;;;;;15.43;11.57;;;;;;;;;;5037354;28;20183;-95
2024/02/28 01:27:34;;;;;;;19.70;12.52;;;;;;;;;;5037297;28;20222;-94
2024/02/28 01:30:05;;;;;;;13.38;11.60;;;;;;;;;;5037309;28;20214;-96
2024/02/28 01:32:33;;;;;;;15.93;13.10;;;;;;;;;;5037188;28;20198;-96
2024/02/28 01:35:00;;;;;;;16.58;12.60;;;;;;;;;;5037283;28;20239;-94
2024/02/28 01:37:28;;;;;;;16.60;13.40;;;;;;;;;;5036882;28;20199;-94
2024/02/28 01:39:56;;;;;;;15.85;11.75;;;;;;;;;;5037951;28;20183;-94
2024/02/28 01:42:24;;;;;;;14.25;11.95;;;;;;;;;;5040818;28;20221;-94
2024/02/28 01:44:52;;;;;;;12.75;10.43;;;;;;;;;;5040860;28;20433;-94
2024/02/28 01:47:21;;;;;;;16.80;11.38;;;;;;;;;;5040708;28;20211;-93
2024/02/28 01:49:50;;;;;;;14.27;11.68;;;;;;;;;;5040826;28;20183;-94
2024/02/28 01:52:19;;;;;;;16.00;13.25;;;;;;;;;;5040572;28;20230;-95
2024/02/28 01:54:47;;;;;;;12.90;9.90;;;;;;;;;;5040654;28;20179;-95
2024/02/28 01:57:16;;;;;;;11.27;8.98;;;;;;;;;;5040422;28;20203;-94
2024/02/28 01:59:44;;;;;;;9.48;8.45;;;;;;;;;;5040455;28;20206;-95
2024/02/28 02:02:11;;;;;;;9.93;8.93;;;;;;;;;;5040366;28;20179;-94
2024/02/28 02:04:40;;;;;;;7.28;6.43;;;;;;;;;;5040475;28;20194;-95
2024/02/28 02:07:08;;;;;;;12.43;8.82;;;;;;;;;;5040345;28;20191;-95
2024/02/28 02:09:36;;;;;;;15.45;12.23;;;;;;;;;;5040404;28;20189;-94
2024/02/28 02:12:04;;;;;;;11.52;10.32;;;;;;;;;;5040178;28;20188;-94
2024/02/28 02:14:32;;;;;;;9.70;7.95;;;;;;;;;;5040239;28;20509;-95
2024/02/28 02:16:59;;;;;;;10.27;9.05;;;;;;;;;;5040153;28;20191;-94
2024/02/28 02:19:27;;;;;;;11.57;9.85;;;;;;;;;;5040147;28;20211;-95
2024/02/28 02:22:00;;;;;;;15.05;11.48;;;;;;;;;;5040019;28;20198;-95
2024/02/28 02:24:29;;;;;;;14.10;10.98;;;;;;;;;;5040165;28;20249;-94
2024/02/28 02:26:59;;;;;;;12.43;9.73;;;;;;;;;;5040002;28;20218;-94
2024/02/28 02:29:28;;;;;;;10.07;8.27;;;;;;;;;;5040044;28;20190;-95
2024/02/28 02:31:55;;;;;;;9.75;8.23;;;;;;;;;;5039717;28;20214;-95
2024/02/28 02:34:23;;;;;;;6.70;5.97;;;;;;;;;;5039968;28;20183;-94
2024/02/28 02:36:51;;;;;;;9.35;7.47;;;;;;;;;;5039649;28;20533;-95
2024/02/28 02:39:18;;;;;;;12.10;9.20;;;;;;;;;;5039686;28;20218;-95
2024/02/28 02:41:48;;;;;;;9.73;8.50;;;;;;;;;;5039510;28;20198;-94
2024/02/28 02:44:16;;;;;;;9.77;7.80;;;;;;;;;;5039792;28;20179;-95
2024/02/28 02:46:43;;;;;;;8.05;7.18;;;;;;;;;;5039677;28;20202;-94
2024/02/28 02:49:11;;;;;;;8.45;7.35;;;;;;;;;;5039529;28;20206;-94
2024/02/28 02:51:39;;;;;;;8.57;7.40;;;;;;;;;;5038780;28;20183;-93
2024/02/28 02:54:07;;;;;;;10.52;8.65;;;;;;;;;;5039567;28;20201;-95
2024/02/28 02:56:34;;;;;;;13.68;10.60;;;;;;;;;;5039308;28;20222;-94
2024/02/28 02:59:03;;;;;;;12.05;9.77;;;;;;;;;;5039457;28;20210;-94
2024/02/28 03:01:31;;;;;;;12.52;9.73;;;;;;;;;;5039322;28;20186;-92
2024/02/28 03:03:59;;;;;;;12.52;9.35;;;;;;;;;;5039316;28;20176;-93
2024/02/28 03:06:27;;;;;;;15.95;11.77;;;;;;;;;;5039262;28;20195;-94
2024/02/28 03:08:55;;;;;;;16.65;13.40;;;;;;;;;;5039288;28;20239;-95
2024/02/28 03:11:22;;;;;;;15.65;11.32;;;;;;;;;;5039097;28;20179;-94
2024/02/28 03:13:50;;;;;;;16.92;11.43;;;;;;;;;;5039162;28;20179;-94
2024/02/28 03:16:19;;;;;;;11.35;9.77;;;;;;;;;;5038962;28;20195;-93
2024/02/28 03:18:47;;;;;;;14.20;12.07;;;;;;;;;;5039097;28;20202;-94
2024/02/28 03:21:14;;;;;;;12.35;10.15;;;;;;;;;;5038912;28;20199;-94
2024/02/28 03:23:42;;;;;;;14.77;12.07;;;;;;;;;;5038978;28;20210;-95
2024/02/28 03:26:09;;;;;;;14.73;11.60;;;;;;;;;;5038855;28;20195;-93
2024/02/28 03:28:37;;;;;;;15.20;11.88;;;;;;;;;;5038948;28;20184;-93
2024/02/28 03:31:05;;;;;;;12.57;10.25;;;;;;;;;;5038838;28;20182;-94
2024/02/28 03:33:35;;;;;;;13.00;10.68;;;;;;;;;;5038773;28;20194;-94
2024/02/28 03:36:03;;;;;;;14.65;11.32;;;;;;;;;;5038797;28;20175;-95
2024/02/28 03:38:30;;;;;;;13.13;9.40;;;;;;;;;;5038538;28;20203;-94
2024/02/28 03:40:58;;;;;;;9.77;8.57;;;;;;;;;;5038465;28;20210;-94
2024/02/28 03:43:26;;;;;;;8.90;7.65;;;;;;;;;;5038438;28;20191;-93
2024/02/28 03:45:53;;;;;;;10.52;7.85;;;;;;;;;;5038517;28;20194;-94
2024/02/28 03:48:21;;;;;;;8.32;7.53;;;;;;;;;;5038603;28;20235;-95
2024/02/28 03:50:50;;;;;;;15.68;13.45;;;;;;;;;;5038581;28;20206;-95
2024/02/28 03:53:18;;;;;;;20.80;14.52;;;;;;;;;;5038241;28;20209;-94
2024/02/28 03:55:46;;;;;;;19.83;13.98;;;;;;;;;;5038393;28;20194;-94
2024/02/28 03:58:14;;;;;;;12.20;10.07;;;;;;;;;;5038325;28;20198;-94
2024/02/28 04:00:44;;;;;;;12.50;10.98;;;;;;;;;;5038327;28;20198;-95
2024/02/28 04:03:13;;;;;;;11.68;9.50;;;;;;;;;;5037671;28;20187;-94
2024/02/28 04:05:41;;;;;;;9.50;8.35;;;;;;;;;;5038025;28;20234;-93
2024/02/28 04:08:10;;;;;;;10.18;9.25;;;;;;;;;;5038191;28;20198;-94
2024/02/28 04:10:38;;;;;;;8.77;7.88;;;;;;;;;;5038263;28;20198;-93
2024/02/28 04:13:06;;;;;;;8.35;7.50;;;;;;;;;;5038056;28;20187;-93
2024/02/28 04:15:34;;;;;;;10.13;8.05;;;;;;;;;;5038130;28;20191;-93
2024/02/28 04:18:02;;;;;;;8.68;7.25;;;;;;;;;;5038002;28;20210;-93
2024/02/28 04:20:30;;;;;;;12.13;10.70;;;;;;;;;;5038024;28;20198;-93
2024/02/28 04:22:57;;;;;;;8.90;8.00;;;;;;;;;;5037831;28;20183;-94
2024/02/28 04:25:27;;;;;;;9.73;7.85;;;;;;;;;;5037906;28;20230;-93
2024/02/28 04:27:54;;;;;;;18.15;12.52;;;;;;;;;;5037954;28;20206;-93
2024/02/28 04:30:22;;;;;;;15.45;11.45;;;;;;;;;;5038060;28;20191;-95
2024/02/28 04:32:50;;;;;;;17.17;12.45;;;;;;;;;;5037644;28;20202;-94
2024/02/28 04:35:18;;;;;;;12.30;10.43;;;;;;;;;;5037342;28;20190;-93
2024/02/28 04:37:46;;;;;;;10.95;9.63;;;;;;;;;;5037547;28;20408;-93
2024/02/28 04:40:15;;;;;;;11.30;9.50;;;;;;;;;;5037701;28;20201;-93
2024/02/28 04:42:44;;;;;;;13.35;10.55;;;;;;;;;;5037598;28;20179;-93
2024/02/28 04:45:12;;;;;;;14.07;10.73;;;;;;;;;;5037712;28;20206;-94
2024/02/28 04:47:40;;;;;;;8.73;7.78;;;;;;;;;;5037681;28;20203;-94
2024/02/28 04:50:09;;;;;;;12.55;10.20;;;;;;;;;;5037692;28;20198;-94
2024/02/28 04:52:37;;;;;;;10.73;9.38;;;;;;;;;;5037399;28;20219;-93
2024/02/28 04:55:05;;;;;;;11.23;9.35;;;;;;;;;;5037654;28;20179;-94
2024/02/28 04:57:33;;;;;;;16.83;12.93;;;;;;;;;;5037500;28;20203;-93
2024/02/28 05:00:03;;;;;;;12.27;9.55;;;;;;;;;;5037501;28;20207;-93
2024/02/28 05:02:31;;;;;;;12.98;9.48;;;;;;;;;;5037452;28;20254;-94
2024/02/28 05:04:58;;;;;;;11.38;10.27;;;;;;;;;;5037587;28;20194;-94
2024/02/28 05:07:26;;;;;;;11.73;9.35;;;;;;;;;;5037570;28;20249;-93
2024/02/28 05:09:54;;;;;;;13.40;9.50;;;;;;;;;;5037443;28;20179;-94
2024/02/28 05:12:22;;;;;;;8.88;7.80;;;;;;;;;;5037265;28;20190;-94
2024/02/28 05:14:49;;;;;;;12.45;9.85;;;;;;;;;;5037880;28;20206;-93
2024/02/28 05:17:19;;;;;;;10.68;9.32;;;;;;;;;;5041273;28;20195;-94
2024/02/28 05:19:46;;;;;;;8.82;7.30;;;;;;;;;;5041276;28;20179;-93
2024/02/28 05:22:14;;;;;;;9.02;7.63;;;;;;;;;;5041126;28;20179;-95
2024/02/28 05:24:43;;;;;;;11.82;10.20;;;;;;;;;;5041227;28;20190;-95
2024/02/28 05:27:11;;;;;;;11.55;9.38;;;;;;;;;;5041184;28;20271;-93
2024/02/28 05:29:39;;;;;;;11.82;9.85;;;;;;;;;;5041208;28;20233;-93
2024/02/28 05:32:08;;;;;;;9.20;8.25;;;;;;;;;;5040701;28;20191;-94
2024/02/28 05:34:37;;;;;;;11.70;10.32;;;;;;;;;;5040977;28;20209;-95
2024/02/28 05:37:05;;;;;;;10.93;9.57;;;;;;;;;;5040517;28;20215;-95
2024/02/28 05:39:33;;;;;;;10.52;8.77;;;;;;;;;;5040942;28;20198;-94
2024/02/28 05:42:00;;;;;;;9.82;8.75;;;;;;;;;;5040669;28;20223;-94
2024/02/28 05:44:28;;;;;;;10.95;7.97;;;;;;;;;;5040942;28;20179;-94
2024/02/28 05:46:56;;;;;;;11.88;9.38;;;;;;;;;;5040806;28;20203;-93
2024/02/28 05:49:23;;;;;;;10.73;9.13;;;;;;;;;;5040745;28;20246;-94
2024/02/28 05:51:53;;;;;;;9.27;7.85;;;;;;;;;;5040634;28;20183;-93
2024/02/28 05:54:21;;;;;;;8.20;7.38;;;;;;;;;;5040743;28;21264;-94
2024/02/28 05:56:48;;;;;;;9.60;8.18;;;;;;;;;;5057954;23;20226;-91
2024/02/28 05:59:16;;;;;;;10.27;8.52;;;;;;;;;;5022878;28;20219;-91
2024/02/28 06:01:45;;;;;;;10.90;9.27;;;;;;;;;;5015248;28;20799;-91
2024/02/28 06:04:13;;;;;;;15.82;12.18;;;;;;;;;;5015677;28;20222;-91
2024/02/28 06:06:40;;;;;;;12.98;9.65;;;;;;;;;;5015532;28;20219;-90
2024/02/28 06:09:10;;;;;;;9.70;7.65;;;;;;;;;;5015629;28;20692;-90
2024/02/28 06:11:37;;;;;;;8.70;7.80;;;;;;;;;;5015038;28;20215;-90
2024/02/28 06:14:05;;;;;;;9.00;7.70;;;;;;;;;;5015484;28;20286;-89
2024/02/28 06:16:33;;;;;;;13.32;10.40;;;;;;;;;;5015078;28;20243;-90
2024/02/28 06:19:00;;;;;;;12.30;8.85;;;;;;;;;;5015324;28;20203;-90
2024/02/28 06:21:29;;;;;;;9.95;7.50;;;;;;;;;;5015087;28;20238;-90
2024/02/28 06:23:57;;;;;;;7.55;6.75;;;;;;;;;;5014844;28;20206;-91
2024/02/28 06:26:27;;;;;;;15.70;11.77;;;;;;;;;;5014290;28;20227;-91
2024/02/28 06:29:00;;;;;;;10.63;8.57;;;;;;;;;;5015117;28;20298;-90
2024/02/28 06:31:29;;;;;;;13.10;10.50;;;;;;;;;;5014954;28;20294;-91
2024/02/28 06:33:57;;;;;;;13.65;10.82;;;;;;;;;;5016402;28;20624;-90
2024/02/28 06:36:24;;;;;;;10.32;8.30;;;;;;;;;;5014752;28;20647;-90
2024/02/28 06:38:52;;;;;;;10.10;8.07;;;;;;;;;;5014470;28;20238;-90
2024/02/28 06:41:19;;;;;;;9.25;8.32;;;;;;;;;;5014606;28;20218;-90
2024/02/28 06:43:48;;;;;;;9.05;8.15;;;;;;;;;;5014530;28;20289;-91
2024/02/28 06:46:16;;;;;;;7.40;6.53;;;;;;;;;;5015009;28;20234;-90
2024/02/28 06:48:43;;;;;;;8.20;7.38;;;;;;;;;;5014476;28;20209;-90
2024/02/28 06:51:11;;;;;;;12.25;9.70;;;;;;;;;;5014152;28;20199;-91
2024/02/28 06:53:39;;;;;;;9.75;8.27;;;;;;;;;;5014411;28;20222;-89
2024/02/28 06:56:07;;;;;;;12.05;9.10;;;;;;;;;;5014466;28;20250;-90
2024/02/28 06:58:34;;;;;;;14.57;11.98;;;;;;;;;;5015021;28;20211;-90
2024/02/28 07:01:04;;;;;;;16.42;12.93;;;;;;;;;;5020660;28;20226;-90
2024/02/28 07:03:31;;;;;;;11.85;10.18;;;;;;;;;;5035408;28;20209;-90
2024/02/28 07:05:59;;;;;;;12.13;9.93;;;;;;;;;;5036220;28;20206;-90
2024/02/28 07:08:26;;;;;;;11.60;8.60;;;;;;;;;;5036329;28;20213;-91
2024/02/28 07:10:54;;;;;;;9.55;8.60;;;;;;;;;;5024560;28;20676;-91
2024/02/28 07:13:22;;;;;;;12.00;9.93;;;;;;;;;;5016679;28;20205;-90
2024/02/28 07:15:50;;;;;;;13.38;11.80;;;;;;;;;;5030033;28;20266;-91
2024/02/28 07:18:19;;;;;;;17.25;12.50;;;;;;;;;;5032859;28;20231;-91
2024/02/28 07:20:46;;;;;;;16.45;13.30;;;;;;;;;;5019130;28;20663;-92
2024/02/28 07:23:14;;;;;;;19.92;13.52;;;;;;;;;;5018060;28;20219;-92
2024/02/28 07:25:41;;;;;;;18.63;15.30;;;;;;;;;;5017263;28;20286;-92
2024/02/28 07:28:09;;;;;;;20.85;15.15;;;;;;;;;;5023960;28;20330;-92
2024/02/28 07:30:37;;;;;;;21.55;15.40;;;;;;;;;;5016403;28;20219;-91
2024/02/28 07:33:07;;;;;;;15.55;11.93;;;;;;;;;;5015103;28;20206;-92
2024/02/28 07:35:46;;;;;;;19.08;14.25;;;;;;;;;;5014869;28;20621;-91
2024/02/28 07:38:14;;;;;;;21.58;15.02;;;;;;;;;;5013580;28;20223;-90
2024/02/28 07:40:41;;;;;;;17.70;13.20;;;;;;;;;;5013766;28;20744;-90
2024/02/28 07:43:09;;;;;;;12.88;9.82;;;;;;;;;;5013120;28;20603;-91
2024/02/28 07:45:36;;;;;;;16.50;11.68;;;;;;;;;;5013374;28;20294;-90
2024/02/28 07:48:05;;;;;;;10.40;8.68;;;;;;;;;;5013595;28;20322;-91
2024/02/28 07:50:34;;;;;;;8.05;6.55;;;;;;;;;;5013496;28;20211;-89
2024/02/28 07:53:02;;;;;;;8.77;7.05;;;;;;;;;;5013653;28;20390;-90
2024/02/28 07:55:30;;;;;;;13.68;10.15;;;;;;;;;;5014401;28;20282;-90
2024/02/28 07:57:57;;;;;;;11.38;9.80;;;;;;;;;;5013256;28;20223;-89
2024/02/28 08:00:25;;;;;;;9.88;8.85;;;;;;;;;;5018071;28;20207;-91
2024/02/28 08:02:52;;;;;;;10.95;8.85;;;;;;;;;;5013458;28;20246;-89
2024/02/28 08:05:20;;;;;;;12.85;9.95;;;;;;;;;;5013312;28;20290;-91
2024/02/28 08:07:49;;;;;;;13.25;9.70;;;;;;;;;;5013673;28;20302;-90
2024/02/28 08:10:17;;;;;;;9.95;8.75;;;;;;;;;;5013142;28;20282;-90
2024/02/28 08:12:44;;;;;;;10.10;8.95;;;;;;;;;;5012943;28;20270;-90
2024/02/28 08:15:12;;;;;;;11.18;8.90;;;;;;;;;;5013015;28;20677;-91
2024/02/28 08:17:40;;;;;;;7.97;6.55;;;;;;;;;;5012940;28;20666;-91
2024/02/28 08:20:09;;;;;;;8.60;7.78;;;;;;;;;;5012867;28;20643;-90
2024/02/28 08:22:37;;;;;;;12.02;9.80;;;;;;;;;;5020148;28;20219;-90
2024/02/28 08:25:07;;;;;;;9.13;8.20;;;;;;;;;;5015820;28;20720;-90
2024/02/28 08:27:35;;;;;;;10.10;9.00;;;;;;;;;;5012804;28;20306;-91
2024/02/28 08:30:04;;;;;;;11.00;9.45;;;;;;;;;;5012935;28;20680;-90
2024/02/28 08:32:31;;;;;;;14.23;11.20;;;;;;;;;;5012572;28;20194;-90
2024/02/28 08:34:59;;;;;;;16.23;12.10;;;;;;;;;;5012701;28;20206;-91
2024/02/28 08:37:28;;;;;;;20.80;15.23;;;;;;;;;;5012433;28;20238;-91
2024/02/28 08:39:57;;;;;;;16.75;12.18;;;;;;;;;;5012817;28;20787;-91
2024/02/28 08:42:27;;;;;;;13.75;11.25;;;;;;;;;;5012628;28;20289;-90
2024/02/28 08:44:55;;;;;;;19.33;13.82;;;;;;;;;;5022573;28;20197;-91
2024/02/28 08:47:25;;;;;;;17.67;13.35;;;;;;;;;;5013113;28;20226;-89
2024/02/28 08:49:53;;;;;;;16.77;12.88;;;;;;;;;;5012034;28;20203;-91
2024/02/28 08:52:22;;;;;;;19.50;14.18;;;;;;;;;;5012755;28;20560;-91
2024/02/28 08:54:50;;;;;;;17.05;13.40;;;;;;;;;;5012600;28;20290;-90
2024/02/28 08:57:18;;;;;;;16.35;12.95;;;;;;;;;;5012621;28;20318;-92
2024/02/28 08:59:47;;;;;;;22.30;17.05;;;;;;;;;;5012653;28;20643;-90
2024/02/28 09:02:14;;;;;;;21.45;16.25;;;;;;;;;;5012362;28;20693;-91
2024/02/28 09:04:42;;;;;;;25.95;16.70;;;;;;;;;;5012500;28;20199;-91
2024/02/28 09:07:09;;;;;;;21.85;16.27;;;;;;;;;;5012794;28;20223;-90
2024/02/28 09:09:43;;;;;;;16.52;12.27;;;;;;;;;;5012675;28;20286;-90
2024/02/28 09:12:10;;;;;;;17.42;13.48;;;;;;;;;;5012490;28;20231;-90
2024/02/28 09:14:38;;;;;;;20.00;14.52;;;;;;;;;;5012644;28;20586;-90
2024/02/28 09:17:07;;;;;;;22.27;15.75;;;;;;;;;;5012580;28;20305;-91
2024/02/28 09:19:35;;;;;;;25.50;17.95;;;;;;;;;;5012505;28;20290;-90
2024/02/28 09:22:02;;;;;;;21.70;16.60;;;;;;;;;;5012021;28;20286;-90
2024/02/28 09:24:31;;;;;;;17.75;14.27;;;;;;;;;;5012651;28;20643;-91
2024/02/28 09:26:58;;;;;;;20.42;15.20;;;;;;;;;;5012660;28;20226;-91
2024/02/28 09:29:26;;;;;;;20.88;15.63;;;;;;;;;;5012353;28;20294;-90
2024/02/28 09:31:54;;;;;;;23.10;16.00;;;;;;;;;;5012505;28;20303;-90
2024/02/28 09:34:23;;;;;;;19.13;14.15;;;;;;;;;;5015549;28;20252;-91
2024/02/28 09:36:50;;;;;;;21.80;15.70;;;;;;;;;;5014521;28;20318;-90
2024/02/28 09:39:18;;;;;;;21.70;16.30;;;;;;;;;;5012388;28;20234;-91
2024/02/28 09:41:47;;;;;;;17.73;13.02;;;;;;;;;;5013017;28;20294;-91
2024/02/28 09:44:16;;;;;;;18.77;14.68;;;;;;;;;;5012381;28;20306;-91
2024/02/28 09:46:44;;;;;;;24.42;16.95;;;;;;;;;;5012579;28;20306;-89
2024/02/28 09:49:12;;;;;;;21.02;15.48;;;;;;;;;;5012165;28;20199;-88
2024/02/28 09:51:41;;;;;;;21.45;15.00;;;;;;;;;;5011811;28;20286;-87
2024/02/28 09:54:09;;;;;;;19.55;13.60;;;;;;;;;;5012433;28;20287;-87
2024/02/28 09:56:36;;;;;;;19.27;13.88;;;;;;;;;;5012008;28;20721;-89
2024/02/28 09:59:04;;;;;;;18.13;13.32;;;;;;;;;;5012425;28;20646;-91
2024/02/28 10:01:32;;;;;;;23.80;16.40;;;;;;;;;;5012402;28;20207;-87
2024/02/28 10:04:01;;;;;;;20.45;15.85;;;;;;;;;;5016935;28;20227;-89
2024/02/28 10:06:28;;;;;;;16.85;12.60;;;;;;;;;;5016512;28;20223;-88
2024/02/28 10:08:57;;;;;;;22.88;15.45;;;;;;;;;;5024042;28;20655;-85
2024/02/28 10:11:26;;;;;;;18.98;14.02;;;;;;;;;;5016392;28;20289;-87
2024/02/28 10:13:55;;;;;;;22.70;15.45;;;;;;;;;;5025617;28;20180;-86
2024/02/28 10:16:23;;;;;;;17.00;12.27;;;;;;;;;;5016638;28;20223;-91
2024/02/28 10:18:50;;;;;;;19.48;15.05;;;;;;;;;;5021385;28;20234;-89
2024/02/28 10:21:18;;;;;;;17.23;12.73;;;;;;;;;;5019822;28;20270;-87
2024/02/28 10:23:46;;;;;;;16.20;12.13;;;;;;;;;;5019852;28;20229;-88
2024/02/28 10:26:15;;;;;;;14.05;11.30;;;;;;;;;;5029357;28;20195;-87
2024/02/28 10:28:43;;;;;;;18.02;13.68;;;;;;;;;;5031326;28;20203;-88
2024/02/28 10:31:12;;;;;;;21.90;14.90;;;;;;;;;;5025252;28;20257;-88
2024/02/28 10:33:39;;;;;;;21.15;14.98;;;;;;;;;;5017050;28;20685;-87
2024/02/28 10:36:07;;;;;;;18.60;14.18;;;;;;;;;;5018642;28;20195;-87
2024/02/28 10:38:36;;;;;;;19.70;13.45;;;;;;;;;;5016182;28;20203;-87
2024/02/28 10:41:03;;;;;;;15.40;10.82;;;;;;;;;;5015878;28;20235;-89
2024/02/28 10:43:34;;;;;;;16.20;12.43;;;;;;;;;;5014690;28;20318;-88
2024/02/28 10:46:02;;;;;;;13.43;10.10;;;;;;;;;;5015435;28;20202;-89
2024/02/28 10:48:30;;;;;;;17.45;11.85;;;;;;;;;;5015975;28;20206;-87
2024/02/28 10:50:57;;;;;;;21.50;14.93;;;;;;;;;;5016469;28;20226;-87
2024/02/28 10:53:33;;;;;;;17.48;12.70;;;;;;;;;;5016770;28;20294;-87
2024/02/28 10:56:04;;;;;;;17.90;14.32;;;;;;;;;;5018657;28;20202;-87
2024/02/28 10:58:37;;;;;;;16.35;12.05;;;;;;;;;;5016863;28;20222;-87
2024/02/28 11:01:06;;;;;;;20.42;14.57;;;;;;;;;;5017356;28;20207;-89
2024/02/28 11:03:33;;;;;;;19.65;14.65;;;;;;;;;;5014674;28;20227;-88
2024/02/28 11:06:01;;;;;;;22.08;16.58;;;;;;;;;;5014838;28;20195;-88
2024/02/28 11:08:31;;;;;;;18.10;13.80;;;;;;;;;;5014427;28;20205;-88
2024/02/28 11:10:59;;;;;;;20.05;13.90;;;;;;;;;;5014244;28;20209;-89
2024/02/28 11:13:28;;;;;;;18.77;14.15;;;;;;;;;;5014180;28;20199;-89
2024/02/28 11:16:07;;;;;;;15.77;12.40;;;;;;;;;;5014032;28;20288;-88
2024/02/28 11:18:35;;;;;;;15.02;12.13;;;;;;;;;;5013802;28;20293;-88
2024/02/28 11:21:03;;;;;;;16.17;10.82;;;;;;;;;;5014002;28;20225;-88
2024/02/28 11:23:37;;;;;;;25.50;17.10;;;;;;;;;;5013986;28;20309;-87
2024/02/28 11:26:05;;;;;;;24.45;17.20;;;;;;;;;;5014010;28;20207;-87
2024/02/28 11:28:33;;;;;;;24.50;18.50;;;;;;;;;;5013976;28;20286;-87
2024/02/28 11:31:02;;;;;;;21.67;16.88;;;;;;;;;;5014736;28;20650;-87
2024/02/28 11:33:29;;;;;;;25.73;18.02;;;;;;;;;;5013678;28;20297;-88
2024/02/28 11:35:57;;;;;;;18.60;14.50;;;;;;;;;;5013755;28;20286;-88
2024/02/28 11:38:26;;;;;;;27.33;18.35;;;;;;;;;;5023763;28;20724;-88
2024/02/28 11:40:55;;;;;;;19.90;14.70;;;;;;;;;;5014728;28;20214;-86
2024/02/28 11:43:22;;;;;;;23.20;15.98;;;;;;;;;;5014577;28;20221;-87
2024/02/28 11:45:50;;;;;;;21.00;15.25;;;;;;;;;;5013524;28;20206;-88
2024/02/28 11:48:19;;;;;;;24.20;16.40;;;;;;;;;;5013559;28;20593;-89
2024/02/28 11:50:47;;;;;;;23.02;16.35;;;;;;;;;;5013871;28;20286;-90
2024/02/28 11:53:14;;;;;;;24.50;17.63;;;;;;;;;;5016658;28;20633;-90
2024/02/28 11:55:42;;;;;;;24.60;18.40;;;;;;;;;;5017198;28;20729;-93
2024/02/28 11:58:10;;;;;;;22.92;16.23;;;;;;;;;;5330087;22;20211;-92
2024/02/28 12:00:48;;;;;;;19.40;16.02;;;;;;;;;;5029146;28;20207;-93
2024/02/28 12:03:22;;;;;;;18.13;14.48;;;;;;;;;;5032606;28;20202;-93
2024/02/28 12:05:49;;;;;;;22.58;15.52;;;;;;;;;;5033555;28;20223;-93
2024/02/28 12:08:19;;;;;;;21.20;17.17;;;;;;;;;;5034445;28;20258;-93
2024/02/28 12:10:47;;;;;;;24.33;16.38;;;;;;;;;;5034110;28;20262;-93
2024/02/28 12:13:18;;;;;;;19.15;14.80;;;;;;;;;;5033957;28;20215;-93
2024/02/28 12:15:48;;;;;;;21.30;15.75;;;;;;;;;;5035667;28;20203;-93
2024/02/28 12:18:17;;;;;;;21.42;16.02;;;;;;;;;;5035107;28;20246;-93
2024/02/28 12:20:47;;;;;;;22.05;14.88;;;;;;;;;;5036418;28;20191;-93
2024/02/28 12:23:14;;;;;;;18.05;13.35;;;;;;;;;;5037387;28;20206;-93
2024/02/28 12:25:42;;;;;;;20.83;14.45;;;;;;;;;;5033115;28;20223;-94
2024/02/28 12:28:10;;;;;;;17.60;13.18;;;;;;;;;;5034049;28;20238;-93
2024/02/28 12:30:42;;;;;;;18.60;14.00;;;;;;;;;;5034253;28;20226;-94
2024/02/28 12:33:11;;;;;;;18.38;13.85;;;;;;;;;;5035797;28;20199;-93
2024/02/28 12:35:39;;;;;;;18.42;14.27;;;;;;;;;;5037842;28;20262;-94
2024/02/28 12:38:08;;;;;;;14.82;11.27;;;;;;;;;;5037590;28;20214;-93
2024/02/28 12:40:36;;;;;;;18.80;14.55;;;;;;;;;;5037808;28;20198;-93
2024/02/28 12:43:03;;;;;;;19.00;14.60;;;;;;;;;;5037450;28;20187;-93
2024/02/28 12:45:31;;;;;;;19.98;15.60;;;;;;;;;;5037673;28;20210;-93
2024/02/28 14:05:55;;;;;;;20.75;15.32;;;;;;;;;;4999094;28;20208;-94
2024/02/28 14:40:22;;;;;;;15.70;12.25;;;;;;;;;;4998254;28;20196;-93
2024/02/28 14:42:50;;;;;;;15.02;12.25;;;;;;;;;;5000538;28;20199;-92
2024/02/28 14:45:17;;;;;;;13.18;11.35;;;;;;;;;;5000590;28;20211;-93
2024/02/28 14:47:45;;;;;;;14.02;11.10;;;;;;;;;;4999788;28;20197;-91
2024/02/28 14:50:13;;;;;;;14.57;11.65;;;;;;;;;;5000320;28;20195;-92
2024/02/28 14:52:42;;;;;;;11.30;10.13;;;;;;;;;;5094250;22;20226;-90
2024/02/28 14:55:11;;;;;;;13.93;12.40;;;;;;;;;;5014511;28;20205;-89
2024/02/28 14:57:41;;;;;;;17.13;14.25;;;;;;;;;;5014542;28;20286;-89
2024/02/28 15:00:13;;;;;;;15.70;11.65;;;;;;;;;;5014607;28;20685;-89
2024/02/28 15:02:41;;;;;;;11.32;9.93;;;;;;;;;;5014842;28;20234;-89
2024/02/28 15:05:09;;;;;;;10.52;8.85;;;;;;;;;;5016781;28;20293;-89
2024/02/28 15:07:38;;;;;;;14.40;10.48;;;;;;;;;;5014619;28;20209;-89
2024/02/28 15:10:08;;;;;;;13.32;11.05;;;;;;;;;;5014317;28;20230;-89
2024/02/28 15:12:37;;;;;;;12.20;10.25;;;;;;;;;;5013778;28;20310;-89
2024/02/28 15:15:08;;;;;;;17.30;11.93;;;;;;;;;;5014483;28;20203;-89
2024/02/28 15:17:35;;;;;;;11.73;10.52;;;;;;;;;;5014068;28;20666;-89
2024/02/28 15:20:03;;;;;;;11.70;9.98;;;;;;;;;;5014096;28;20654;-89
2024/02/28 15:22:33;;;;;;;13.57;10.82;;;;;;;;;;5013916;28;20246;-90
2024/02/28 15:25:01;;;;;;;10.52;9.20;;;;;;;;;;5014012;28;20194;-90
2024/02/28 15:27:29;;;;;;;9.65;8.40;;;;;;;;;;5013759;28;20225;-90
2024/02/28 15:29:56;;;;;;;8.50;7.30;;;;;;;;;;5014426;28;20286;-90
2024/02/28 15:32:25;;;;;;;9.95;8.82;;;;;;;;;;5013699;28;20310;-89
2024/02/28 15:34:52;;;;;;;8.27;6.88;;;;;;;;;;5014219;28;20199;-89
2024/02/28 15:37:20;;;;;;;10.45;7.95;;;;;;;;;;5013554;28;20296;-89
2024/02/28 15:39:48;;;;;;;8.23;7.38;;;;;;;;;;5013905;28;20205;-89
2024/02/28 15:42:16;;;;;;;7.32;6.60;;;;;;;;;;5013580;28;20221;-90
2024/02/28 15:44:43;;;;;;;7.70;6.90;;;;;;;;;;5013925;28;20661;-89
2024/02/28 15:47:11;;;;;;;10.50;8.23;;;;;;;;;;5013411;28;20252;-89
2024/02/28 15:49:40;;;;;;;9.18;8.23;;;;;;;;;;5023622;28;20285;-90
2024/02/28 15:52:08;;;;;;;5.88;5.28;;;;;;;;;;5013276;28;20223;-89
2024/02/28 15:54:38;;;;;;;5.95;5.35;;;;;;;;;;5013381;28;20630;-90
2024/02/28 15:57:06;;;;;;;8.43;6.45;;;;;;;;;;5013601;28;20561;-89
2024/02/28 15:59:33;;;;;;;6.15;5.55;;;;;;;;;;5013922;28;20205;-90
2024/02/28 16:02:01;;;;;;;6.82;6.05;;;;;;;;;;5013142;28;20230;-89
2024/02/28 16:04:29;;;;;;;6.55;5.85;;;;;;;;;;5013558;28;20198;-89
2024/02/28 16:06:59;;;;;;;7.82;6.15;;;;;;;;;;5013625;28;20250;-89
2024/02/28 16:09:26;;;;;;;9.90;6.45;;;;;;;;;;5013493;28;20207;-91
2024/02/28 16:11:54;;;;;;;7.45;6.53;;;;;;;;;;5021496;28;20636;-89
2024/02/28 16:14:22;;;;;;;8.25;7.43;;;;;;;;;;5013797;28;20242;-89
2024/02/28 16:16:49;;;;;;;5.85;5.35;;;;;;;;;;5014315;28;20740;-89
2024/02/28 16:19:17;;;;;;;6.20;5.45;;;;;;;;;;5013607;28;20230;-89